Time;durP1;ratioP1;P1;durP2;ratioP2;P2;SDS_P1;SDS_P2;PMS_P1;PMS_P2;Temp;Humidity;BMP_temperature;BMP_pressure;BME280_temperature;BME280_humidity;BME280_pressure;Samples;Min_cycle;Max_cycle;Signal;HPM_P1;HPM_P2
2022/07/26 00:02:11;;;;;;;3.35;1.05;;;18.60;99.90;;;;;;5014087;28;20041;-76
2022/07/26 00:04:37;;;;;;;3.65;1.13;;;18.60;99.90;;;;;;5013882;28;20049;-76
2022/07/26 00:07:02;;;;;;;2.53;0.98;;;18.60;99.90;;;;;;5013986;28;20049;-76
2022/07/26 00:09:28;;;;;;;4.40;1.00;;;18.60;99.90;;;;;;5014056;28;20092;-76
2022/07/26 00:11:54;;;;;;;5.38;1.50;;;18.60;99.90;;;;;;4997450;28;20034;-76
2022/07/26 00:14:20;;;;;;;4.82;1.30;;;18.60;99.90;;;;;;5013674;28;20077;-76
2022/07/26 00:16:45;;;;;;;9.25;2.03;;;18.60;99.90;;;;;;4997274;28;20046;-76
2022/07/26 00:19:13;;;;;;;2.45;1.08;;;18.60;99.90;;;;;;5013334;28;20511;-76
2022/07/26 00:21:39;;;;;;;5.93;1.70;;;18.60;99.90;;;;;;5013565;28;20046;-76
2022/07/26 00:24:05;;;;;;;2.55;1.10;;;18.60;99.90;;;;;;5013507;28;20072;-76
2022/07/26 00:26:32;;;;;;;3.58;1.30;;;18.50;99.90;;;;;;5013412;28;20050;-76
2022/07/26 00:28:58;;;;;;;5.95;1.38;;;18.50;99.90;;;;;;4997348;28;20041;-76
2022/07/26 00:31:24;;;;;;;2.63;0.95;;;18.50;99.90;;;;;;5013554;28;20104;-76
2022/07/26 00:33:50;;;;;;;2.80;1.25;;;18.50;99.90;;;;;;4996889;28;20034;-76
2022/07/26 00:36:15;;;;;;;5.15;1.35;;;18.50;99.90;;;;;;5013206;28;20516;-76
2022/07/26 00:38:41;;;;;;;4.75;1.33;;;18.40;99.90;;;;;;5013578;28;20050;-76
2022/07/26 00:41:08;;;;;;;4.68;1.20;;;18.40;99.90;;;;;;5013456;28;20137;-76
2022/07/26 00:43:34;;;;;;;1.60;1.23;;;18.40;99.90;;;;;;5012963;28;20041;-76
2022/07/26 00:46:00;;;;;;;5.80;0.90;;;18.40;99.90;;;;;;5013059;28;20038;-76
2022/07/26 00:48:25;;;;;;;4.30;1.17;;;18.40;99.90;;;;;;4996698;28;20041;-76
2022/07/26 00:50:54;;;;;;;6.10;1.10;;;18.30;99.90;;;;;;4996667;28;20097;-76
2022/07/26 00:53:22;;;;;;;3.40;1.20;;;18.30;99.90;;;;;;5012478;28;20121;-76
2022/07/26 00:55:49;;;;;;;1.02;0.82;;;18.30;99.90;;;;;;4996743;28;20401;-76
2022/07/26 00:58:15;;;;;;;5.13;1.48;;;18.30;99.90;;;;;;4996493;28;20056;-76
2022/07/26 01:00:41;;;;;;;5.03;1.10;;;18.30;99.90;;;;;;5012873;28;20121;-76
2022/07/26 01:03:07;;;;;;;6.93;1.63;;;18.40;99.90;;;;;;4996426;28;20517;-76
2022/07/26 01:05:34;;;;;;;4.80;1.40;;;18.40;99.90;;;;;;5012653;28;20054;-76
2022/07/26 01:08:00;;;;;;;6.45;1.35;;;18.40;99.90;;;;;;5012931;28;20045;-76
2022/07/26 01:10:26;;;;;;;3.83;1.48;;;18.40;99.90;;;;;;5012898;28;20498;-76
2022/07/26 01:12:52;;;;;;;6.47;1.60;;;18.30;99.90;;;;;;5012634;28;20131;-76
2022/07/26 01:15:18;;;;;;;3.05;1.55;;;18.60;99.90;;;;;;4996482;28;20033;-76
2022/07/26 01:17:44;;;;;;;6.93;1.50;;;18.30;99.90;;;;;;4996073;28;20061;-76
2022/07/26 01:20:11;;;;;;;3.85;1.08;;;18.20;99.90;;;;;;4999497;28;20045;-76
2022/07/26 01:22:37;;;;;;;4.18;1.15;;;18.20;99.90;;;;;;4999644;28;20133;-76
2022/07/26 01:25:04;;;;;;;6.72;1.75;;;18.20;99.90;;;;;;4999382;28;20124;-76
2022/07/26 01:27:29;;;;;;;4.57;1.40;;;18.20;99.90;;;;;;4999343;28;20103;-76
2022/07/26 01:29:55;;;;;;;5.63;1.30;;;18.20;99.90;;;;;;4999318;28;20037;-76
2022/07/26 01:32:21;;;;;;;4.40;1.30;;;18.20;99.90;;;;;;4999268;28;20110;-76
2022/07/26 01:34:47;;;;;;;8.02;1.60;;;18.20;99.90;;;;;;5015556;28;20077;-76
2022/07/26 01:37:13;;;;;;;4.55;1.15;;;18.20;99.90;;;;;;4999140;28;20081;-76
2022/07/26 01:39:38;;;;;;;1.42;0.85;;;18.20;99.90;;;;;;4999417;28;20045;-76
2022/07/26 01:42:04;;;;;;;2.40;0.98;;;18.20;99.90;;;;;;4999101;28;20045;-76
2022/07/26 01:44:30;;;;;;;2.35;1.00;;;18.20;99.90;;;;;;4999204;28;20497;-76
2022/07/26 01:46:56;;;;;;;3.55;1.02;;;18.20;99.90;;;;;;4999296;28;20077;-76
2022/07/26 01:49:22;;;;;;;7.28;1.25;;;18.20;99.90;;;;;;4999045;28;20041;-76
2022/07/26 01:51:47;;;;;;;3.08;1.20;;;18.20;99.90;;;;;;4998896;28;20037;-76
2022/07/26 01:54:13;;;;;;;2.55;0.95;;;18.20;99.90;;;;;;5015271;28;20488;-76
2022/07/26 01:56:39;;;;;;;4.25;1.08;;;18.20;99.90;;;;;;5015541;28;20045;-76
2022/07/26 01:59:04;;;;;;;3.88;1.35;;;18.20;99.90;;;;;;4966707;28;20038;-76
2022/07/26 02:01:30;;;;;;;3.45;1.30;;;18.20;99.90;;;;;;5015397;28;20052;-76
2022/07/26 02:03:56;;;;;;;4.85;1.27;;;18.20;99.90;;;;;;4982645;28;20044;-76
2022/07/26 02:06:21;;;;;;;2.05;1.15;;;18.20;99.90;;;;;;5015009;28;20476;-76
2022/07/26 02:08:47;;;;;;;5.70;1.52;;;18.20;99.90;;;;;;4998801;28;20045;-76
2022/07/26 02:11:13;;;;;;;3.75;1.27;;;18.10;99.90;;;;;;5015351;28;20040;-76
2022/07/26 02:13:40;;;;;;;3.83;1.08;;;18.10;99.90;;;;;;4999003;28;20037;-76
2022/07/26 02:16:09;;;;;;;2.28;1.10;;;18.10;99.90;;;;;;5014938;28;20125;-76
2022/07/26 02:18:39;;;;;;;2.63;0.98;;;18.10;99.90;;;;;;4998569;28;20054;-76
2022/07/26 02:21:06;;;;;;;2.40;1.00;;;18.10;99.90;;;;;;5015332;28;20037;-76
2022/07/26 02:23:32;;;;;;;2.58;0.95;;;18.10;99.90;;;;;;5014986;28;20656;-76
2022/07/26 02:25:59;;;;;;;5.43;1.08;;;18.00;99.90;;;;;;5015762;28;20042;-76
2022/07/26 02:28:24;;;;;;;3.85;1.08;;;18.10;99.90;;;;;;5014955;28;20064;-76
2022/07/26 02:30:50;;;;;;;3.63;1.35;;;18.10;99.90;;;;;;4998649;28;20042;-76
2022/07/26 02:33:17;;;;;;;4.32;1.00;;;18.00;99.90;;;;;;4998737;28;20045;-76
2022/07/26 02:35:43;;;;;;;3.50;1.02;;;18.00;99.90;;;;;;4982555;28;20041;-76
2022/07/26 02:38:12;;;;;;;4.78;1.30;;;18.00;99.90;;;;;;4982282;28;20044;-76
2022/07/26 02:40:38;;;;;;;2.95;0.90;;;18.00;99.90;;;;;;4982891;28;20041;-76
2022/07/26 02:43:06;;;;;;;3.30;1.30;;;18.00;99.90;;;;;;5014757;28;20042;-76
2022/07/26 02:45:32;;;;;;;4.20;1.17;;;18.00;99.90;;;;;;4982165;28;20037;-76
2022/07/26 02:47:58;;;;;;;1.70;0.98;;;18.00;99.90;;;;;;5014739;28;20048;-76
2022/07/26 02:50:25;;;;;;;5.57;1.30;;;18.00;99.90;;;;;;4998397;28;20120;-76
2022/07/26 02:52:52;;;;;;;2.30;0.98;;;18.00;99.90;;;;;;5014795;28;20120;-76
2022/07/26 02:55:20;;;;;;;3.33;0.98;;;18.00;99.90;;;;;;5014700;28;20049;-76
2022/07/26 02:57:46;;;;;;;4.75;1.23;;;18.00;99.90;;;;;;5014662;28;20099;-76
2022/07/26 03:00:14;;;;;;;2.03;1.00;;;17.90;99.90;;;;;;5014616;28;20049;-76
2022/07/26 03:02:40;;;;;;;1.35;0.90;;;17.90;99.90;;;;;;4998569;28;20050;-76
2022/07/26 03:05:06;;;;;;;2.40;1.52;;;17.90;99.90;;;;;;4998283;28;20042;-76
2022/07/26 03:07:32;;;;;;;2.47;1.15;;;17.90;99.90;;;;;;5014518;28;20051;-76
2022/07/26 03:09:58;;;;;;;2.25;1.20;;;17.90;99.90;;;;;;4998469;28;20131;-76
2022/07/26 03:12:24;;;;;;;5.25;1.05;;;17.90;99.90;;;;;;4982179;28;20120;-76
2022/07/26 03:14:50;;;;;;;0.73;0.73;;;17.90;99.90;;;;;;4998349;28;20042;-76
2022/07/26 03:17:16;;;;;;;1.73;0.70;;;17.90;99.90;;;;;;4999353;28;20041;-76
2022/07/26 03:19:41;;;;;;;2.58;1.08;;;17.90;99.90;;;;;;5001370;28;20211;-76
2022/07/26 03:22:07;;;;;;;1.45;1.10;;;17.90;99.90;;;;;;5001586;28;20048;-75
2022/07/26 03:24:33;;;;;;;1.17;0.93;;;17.80;99.90;;;;;;5001748;28;20080;-75
2022/07/26 03:26:59;;;;;;;2.00;0.98;;;17.60;99.90;;;;;;5001661;28;20131;-75
2022/07/26 03:29:25;;;;;;;1.42;0.80;;;17.50;99.90;;;;;;5017727;28;20045;-75
2022/07/26 03:31:51;;;;;;;0.98;0.68;;;17.40;99.90;;;;;;5001543;28;20405;-75
2022/07/26 03:34:17;;;;;;;2.20;1.00;;;17.30;99.90;;;;;;5018131;28;20038;-75
2022/07/26 03:36:42;;;;;;;1.27;0.75;;;17.20;99.90;;;;;;5017655;28;20076;-75
2022/07/26 03:39:09;;;;;;;3.28;0.90;;;17.20;99.90;;;;;;4985142;28;20107;-75
2022/07/26 03:41:34;;;;;;;1.98;0.77;;;17.10;99.90;;;;;;5017551;28;20083;-75
2022/07/26 03:44:00;;;;;;;1.25;0.68;;;17.10;99.90;;;;;;5001814;28;20081;-75
2022/07/26 03:46:26;;;;;;;2.15;0.80;;;17.00;99.90;;;;;;5017781;28;20041;-74
2022/07/26 03:48:52;;;;;;;2.80;0.77;;;17.00;99.90;;;;;;5017475;28;20084;-75
2022/07/26 03:51:17;;;;;;;1.95;0.80;;;17.00;99.90;;;;;;4984923;28;20044;-75
2022/07/26 03:53:43;;;;;;;1.30;0.80;;;16.90;99.90;;;;;;5001061;28;20491;-75
2022/07/26 03:56:27;;;;;;;0.65;0.65;;;16.90;99.90;;;;;;4984850;28;20041;-75
2022/07/26 03:58:53;;;;;;;1.73;0.60;;;16.90;99.90;;;;;;5017570;28;20428;-75
2022/07/26 04:01:19;;;;;;;2.20;0.77;;;16.80;99.90;;;;;;4984737;28;20141;-75
2022/07/26 04:03:45;;;;;;;1.17;0.60;;;16.80;99.90;;;;;;5001029;28;20084;-75
2022/07/26 04:06:11;;;;;;;2.17;0.80;;;16.80;99.90;;;;;;5017214;28;20081;-75
2022/07/26 04:08:37;;;;;;;8.20;1.13;;;16.80;99.90;;;;;;5000759;28;20040;-75
2022/07/26 04:11:02;;;;;;;4.70;1.00;;;16.70;99.90;;;;;;5017048;28;20037;-75
2022/07/26 04:13:28;;;;;;;1.40;0.90;;;16.70;99.90;;;;;;5016925;28;20056;-75
2022/07/26 04:15:54;;;;;;;3.33;0.93;;;16.70;99.90;;;;;;5000741;28;20042;-75
2022/07/26 04:18:19;;;;;;;2.22;1.17;;;16.70;99.90;;;;;;5000444;28;20119;-75
2022/07/26 04:20:45;;;;;;;0.75;0.60;;;16.70;99.90;;;;;;5016871;28;20107;-75
2022/07/26 04:23:11;;;;;;;1.77;1.02;;;16.70;99.90;;;;;;5000528;28;20441;-75
2022/07/26 04:25:37;;;;;;;1.75;0.73;;;16.70;99.90;;;;;;5016643;28;20037;-75
2022/07/26 04:28:03;;;;;;;2.45;0.90;;;16.70;99.90;;;;;;5016064;28;20044;-75
2022/07/26 04:30:29;;;;;;;2.10;0.95;;;16.80;99.90;;;;;;5016110;28;20037;-75
2022/07/26 04:32:54;;;;;;;1.60;0.93;;;16.90;99.90;;;;;;5000422;28;20040;-75
2022/07/26 04:35:20;;;;;;;0.73;0.65;;;16.90;99.90;;;;;;5016582;28;20520;-75
2022/07/26 04:37:46;;;;;;;2.25;0.63;;;16.90;99.90;;;;;;5018216;28;20131;-75
2022/07/26 04:40:17;;;;;;;3.38;0.68;;;16.90;99.90;;;;;;5016516;28;20163;-75
2022/07/26 04:42:42;;;;;;;;;;;16.90;99.90;;;;;;5000548;28;20138;-75
2022/07/26 04:45:09;;;;;;;0.95;0.70;;;16.90;99.90;;;;;;4999984;28;19921;-75
2022/07/26 04:47:35;;;;;;;3.10;0.80;;;16.90;99.90;;;;;;5016386;28;20047;-75
2022/07/26 04:50:01;;;;;;;0.95;0.60;;;17.00;99.90;;;;;;5016454;28;20041;-75
2022/07/26 04:52:27;;;;;;;2.20;0.98;;;17.00;99.90;;;;;;5016536;28;20044;-75
2022/07/26 04:54:53;;;;;;;1.52;0.57;;;17.00;99.90;;;;;;5016212;28;20045;-75
2022/07/26 04:57:18;;;;;;;1.17;0.80;;;17.10;99.90;;;;;;4999823;28;20405;-75
2022/07/26 04:59:44;;;;;;;1.73;0.68;;;17.10;99.90;;;;;;4999820;28;20041;-75
2022/07/26 05:02:10;;;;;;;2.05;0.75;;;17.20;99.90;;;;;;4999769;28;20068;-75
2022/07/26 05:04:35;;;;;;;5.53;1.20;;;17.10;99.90;;;;;;4983488;28;20451;-75
2022/07/26 05:07:02;;;;;;;3.63;0.80;;;17.20;99.90;;;;;;5016024;28;20045;-75
2022/07/26 05:09:30;;;;;;;1.52;0.70;;;17.20;99.90;;;;;;5016276;28;20052;-75
2022/07/26 05:11:56;;;;;;;1.73;0.80;;;17.20;99.90;;;;;;5018302;28;20037;-75
2022/07/26 05:14:22;;;;;;;2.70;0.88;;;17.30;99.90;;;;;;4983428;28;20127;-75
2022/07/26 05:16:48;;;;;;;1.30;0.68;;;17.30;99.90;;;;;;5015891;28;20080;-75
2022/07/26 05:19:14;;;;;;;3.17;1.00;;;17.30;99.90;;;;;;5015627;28;20056;-75
2022/07/26 05:21:39;;;;;;;2.15;0.82;;;17.20;99.90;;;;;;5015784;28;20045;-75
2022/07/26 05:24:05;;;;;;;1.30;0.80;;;17.20;99.90;;;;;;4999571;28;20041;-75
2022/07/26 05:26:31;;;;;;;3.30;0.88;;;17.20;99.90;;;;;;5015727;28;20044;-75
2022/07/26 05:28:57;;;;;;;2.42;0.65;;;17.10;99.90;;;;;;5015973;28;20064;-75
2022/07/26 05:31:24;;;;;;;1.10;0.40;;;17.10;99.90;;;;;;5015851;28;20037;-75
2022/07/26 05:33:49;;;;;;;1.15;0.43;;;17.10;99.90;;;;;;4999449;28;20496;-75
2022/07/26 05:36:16;;;;;;;3.67;0.60;;;17.00;99.90;;;;;;5015416;28;20131;-75
2022/07/26 05:38:42;;;;;;;4.00;0.40;;;17.10;99.90;;;;;;4999191;28;20398;-75
2022/07/26 05:41:08;;;;;;;2.75;0.63;;;17.00;99.90;;;;;;5015456;28;20167;-75
2022/07/26 05:43:34;;;;;;;0.30;0.30;;;17.10;99.90;;;;;;5015442;28;20186;-74
2022/07/26 05:45:59;;;;;;;1.02;0.60;;;17.10;99.90;;;;;;4998963;28;20136;-75
2022/07/26 05:48:25;;;;;;;1.25;0.60;;;17.10;99.90;;;;;;4982903;28;20120;-75
2022/07/26 05:50:51;;;;;;;1.50;0.43;;;17.00;99.90;;;;;;4982582;28;20046;-75
2022/07/26 05:53:17;;;;;;;0.68;0.30;;;17.40;99.90;;;;;;4999031;28;20073;-75
2022/07/26 05:55:42;;;;;;;0.55;0.38;;;17.00;99.90;;;;;;4999004;28;20451;-75
2022/07/26 05:58:08;;;;;;;1.55;0.40;;;17.10;99.90;;;;;;5015309;28;20041;-75
2022/07/26 06:00:34;;;;;;;0.30;0.30;;;17.10;99.90;;;;;;4998826;28;20045;-75
2022/07/26 06:03:20;;;;;;;4.03;0.50;;;17.10;99.90;;;;;;4982895;28;20041;-75
2022/07/26 06:05:45;;;;;;;0.68;0.40;;;17.20;99.90;;;;;;5014980;28;20470;-75
2022/07/26 06:08:11;;;;;;;0.40;0.40;;;17.20;99.90;;;;;;5015404;28;20077;-75
2022/07/26 06:10:37;;;;;;;4.85;0.70;;;17.20;99.90;;;;;;5015500;28;20041;-75
2022/07/26 06:13:02;;;;;;;1.15;0.40;;;17.20;99.90;;;;;;5016454;28;20091;-74
2022/07/26 06:15:28;;;;;;;0.50;0.40;;;17.20;99.90;;;;;;5000391;28;20403;-74
2022/07/26 06:17:54;;;;;;;0.20;0.20;;;17.10;99.90;;;;;;4998685;28;20041;-75
2022/07/26 06:20:19;;;;;;;0.20;0.20;;;16.90;99.90;;;;;;4998583;28;20119;-74
2022/07/26 06:22:45;;;;;;;1.38;0.40;;;16.80;99.90;;;;;;4998711;28;20523;-74
2022/07/26 06:25:11;;;;;;;1.08;0.60;;;16.70;99.90;;;;;;4998592;28;20046;-74
2022/07/26 06:27:36;;;;;;;2.60;0.50;;;16.60;99.90;;;;;;4998600;28;20045;-74
2022/07/26 06:30:03;;;;;;;1.95;0.40;;;16.60;99.90;;;;;;4998823;28;20119;-74
2022/07/26 06:32:29;;;;;;;2.25;0.55;;;16.70;99.90;;;;;;5015219;28;20041;-74
2022/07/26 06:34:54;;;;;;;0.77;0.40;;;16.80;99.90;;;;;;4982707;28;20099;-74
2022/07/26 06:37:20;;;;;;;1.58;0.38;;;16.90;99.90;;;;;;4982695;28;20042;-75
2022/07/26 06:39:46;;;;;;;0.85;0.45;;;16.90;99.90;;;;;;4998753;28;20096;-74
2022/07/26 06:42:11;;;;;;;1.85;0.43;;;17.00;99.90;;;;;;4998516;28;20053;-75
2022/07/26 06:44:37;;;;;;;1.50;0.50;;;17.10;99.90;;;;;;4982612;28;20041;-74
2022/07/26 06:47:03;;;;;;;0.32;0.30;;;17.20;99.90;;;;;;4982523;28;20044;-75
2022/07/26 06:49:28;;;;;;;0.82;0.40;;;17.30;99.90;;;;;;4998668;28;20045;-75
2022/07/26 06:51:56;;;;;;;0.68;0.40;;;17.40;99.90;;;;;;4966814;28;20042;-75
2022/07/26 06:54:23;;;;;;;1.65;0.40;;;17.40;99.90;;;;;;5002508;28;20045;-75
2022/07/26 06:56:48;;;;;;;0.98;0.40;;;17.40;99.90;;;;;;4986145;28;20052;-75
2022/07/26 06:59:14;;;;;;;1.52;0.40;;;17.40;99.90;;;;;;5018386;28;20041;-75
2022/07/26 07:01:40;;;;;;;1.38;0.30;;;17.30;99.90;;;;;;5018321;28;20164;-75
2022/07/26 07:04:06;;;;;;;0.68;0.43;;;17.20;99.90;;;;;;5002105;28;20041;-75
2022/07/26 07:06:32;;;;;;;1.45;0.35;;;17.10;99.90;;;;;;4985757;28;20041;-75
2022/07/26 07:08:57;;;;;;;0.98;0.30;;;17.00;99.90;;;;;;5018502;28;20499;-75
2022/07/26 07:11:23;;;;;;;1.30;0.30;;;17.10;99.90;;;;;;5018102;28;20452;-75
2022/07/26 07:13:49;;;;;;;0.98;0.30;;;17.00;99.90;;;;;;5018125;28;20041;-75
2022/07/26 07:16:14;;;;;;;0.30;0.30;;;17.10;99.90;;;;;;5001725;28;20038;-75
2022/07/26 07:18:40;;;;;;;1.17;0.40;;;17.10;99.90;;;;;;5018012;28;20053;-75
2022/07/26 07:21:06;;;;;;;0.65;0.40;;;17.10;99.90;;;;;;5018059;28;20072;-76
2022/07/26 07:23:32;;;;;;;0.77;0.50;;;17.00;99.90;;;;;;4985432;28;20076;-75
2022/07/26 07:25:58;;;;;;;1.88;0.82;;;16.90;99.90;;;;;;5001496;28;20132;-76
2022/07/26 07:28:24;;;;;;;0.20;0.20;;;17.00;99.90;;;;;;5001584;28;20072;-75
2022/07/26 07:30:49;;;;;;;2.08;0.57;;;17.00;99.90;;;;;;5018181;28;20087;-75
2022/07/26 07:33:16;;;;;;;1.52;0.50;;;17.10;99.90;;;;;;5001680;28;20038;-75
2022/07/26 07:35:42;;;;;;;2.67;0.52;;;17.10;99.90;;;;;;5001558;28;20122;-75
2022/07/26 07:38:08;;;;;;;0.28;0.25;;;17.30;99.90;;;;;;5017697;28;20489;-75
2022/07/26 07:40:34;;;;;;;1.42;0.35;;;17.40;99.90;;;;;;5001221;28;20068;-76
2022/07/26 07:43:00;;;;;;;0.65;0.30;;;17.60;99.90;;;;;;5017856;28;20401;-76
2022/07/26 07:45:26;;;;;;;0.77;0.30;;;17.70;99.90;;;;;;5001233;28;20044;-76
2022/07/26 07:47:51;;;;;;;0.68;0.50;;;17.80;99.90;;;;;;5017794;28;20050;-75
2022/07/26 07:50:17;;;;;;;1.75;0.50;;;17.90;99.90;;;;;;5017637;28;20044;-75
2022/07/26 07:52:43;;;;;;;0.60;0.30;;;17.90;99.90;;;;;;5001171;28;20568;-75
2022/07/26 07:55:09;;;;;;;0.30;0.30;;;17.90;99.90;;;;;;5001331;28;20044;-75
2022/07/26 07:57:35;;;;;;;1.88;0.40;;;18.10;99.90;;;;;;4984853;28;20133;-75
2022/07/26 08:00:06;;;;;;;0.63;0.52;;;18.10;99.90;;;;;;4968956;28;20041;-75
2022/07/26 08:02:32;;;;;;;0.98;0.47;;;18.10;99.90;;;;;;5000584;28;20080;-75
2022/07/26 08:04:57;;;;;;;4.82;0.50;;;18.10;99.90;;;;;;4984857;28;20095;-75
2022/07/26 08:07:23;;;;;;;1.52;0.38;;;18.00;99.90;;;;;;4984636;28;20043;-75
2022/07/26 08:09:49;;;;;;;1.48;0.50;;;17.80;99.90;;;;;;5017159;28;20049;-75
2022/07/26 08:12:16;;;;;;;2.08;0.47;;;17.80;99.90;;;;;;5017002;28;20072;-75
2022/07/26 08:14:41;;;;;;;1.30;0.30;;;17.80;99.90;;;;;;4985043;28;20409;-75
2022/07/26 08:17:08;;;;;;;1.05;0.45;;;17.90;99.90;;;;;;5017047;28;20044;-75
2022/07/26 08:19:33;;;;;;;2.38;0.20;;;17.90;99.90;;;;;;5016932;28;20568;-75
2022/07/26 08:21:59;;;;;;;1.45;0.30;;;18.10;99.90;;;;;;5017190;28;20080;-75
2022/07/26 08:24:25;;;;;;;0.90;0.50;;;18.20;99.90;;;;;;5016964;28;20038;-75
2022/07/26 08:26:52;;;;;;;1.40;0.50;;;18.40;99.90;;;;;;5000456;28;20394;-75
2022/07/26 08:29:18;;;;;;;2.05;0.47;;;18.50;99.90;;;;;;5000333;28;20207;-75
2022/07/26 08:31:44;;;;;;;1.23;0.50;;;18.70;99.90;;;;;;5016974;28;20511;-76
2022/07/26 08:34:09;;;;;;;2.00;0.50;;;18.70;99.90;;;;;;5016591;28;20037;-75
2022/07/26 08:36:35;;;;;;;3.05;0.60;;;18.70;99.90;;;;;;5016470;28;20038;-75
2022/07/26 08:39:02;;;;;;;1.13;0.45;;;18.60;99.90;;;;;;5000181;28;20037;-75
2022/07/26 08:41:29;;;;;;;2.15;0.40;;;18.50;99.90;;;;;;5016396;28;20077;-75
2022/07/26 08:44:04;;;;;;;0.80;0.35;;;18.40;99.90;;;;;;5016438;28;20046;-75
2022/07/26 08:46:32;;;;;;;0.98;0.38;;;18.30;99.90;;;;;;5016612;28;20041;-75
2022/07/26 08:48:58;;;;;;;3.05;0.52;;;18.10;99.90;;;;;;5000002;28;20041;-75
2022/07/26 08:51:25;;;;;;;3.58;0.52;;;18.20;99.90;;;;;;5000038;28;20485;-75
2022/07/26 08:53:56;;;;;;;0.63;0.32;;;18.50;99.90;;;;;;5016339;28;20044;-75
2022/07/26 08:56:22;;;;;;;0.82;0.30;;;18.80;99.90;;;;;;5016236;28;20044;-76
2022/07/26 08:58:47;;;;;;;1.88;0.50;;;19.10;99.90;;;;;;4983666;28;20041;-76
2022/07/26 09:01:13;;;;;;;1.40;0.52;;;19.40;99.90;;;;;;5016104;28;20038;-76
2022/07/26 09:03:40;;;;;;;2.22;0.30;;;19.40;99.90;;;;;;4999955;28;20048;-75
2022/07/26 09:06:17;;;;;;;2.90;0.40;;;19.50;99.90;;;;;;5016002;28;20064;-75
2022/07/26 09:08:50;;;;;;;0.63;0.30;;;19.40;99.90;;;;;;5015966;28;20038;-75
2022/07/26 09:11:31;;;;;;;0.20;0.20;;;19.20;99.90;;;;;;5015996;28;20033;-76
2022/07/26 09:13:59;;;;;;;0.35;0.25;;;19.10;99.90;;;;;;5016132;28;20375;-76
2022/07/26 09:16:26;;;;;;;1.35;0.43;;;19.10;99.90;;;;;;4998986;28;20083;-76
2022/07/26 09:18:52;;;;;;;0.45;0.35;;;19.00;99.90;;;;;;4999229;28;20057;-76
2022/07/26 09:21:35;;;;;;;0.30;0.20;;;19.10;99.90;;;;;;5015662;28;20045;-75
2022/07/26 09:24:01;;;;;;;3.63;0.50;;;19.20;99.90;;;;;;5015709;28;20073;-76
2022/07/26 09:26:27;;;;;;;0.17;0.17;;;19.10;99.90;;;;;;4999386;28;20079;-76
2022/07/26 09:29:04;;;;;;;1.35;0.52;;;19.20;99.90;;;;;;4999263;28;20077;-76
2022/07/26 09:31:30;;;;;;;0.52;0.32;;;19.10;99.90;;;;;;5015797;28;20067;-76
2022/07/26 09:33:58;;;;;;;3.63;0.52;;;19.00;99.90;;;;;;5015707;28;20120;-75
2022/07/26 09:36:25;;;;;;;5.47;0.40;;;19.10;99.90;;;;;;4999487;28;20077;-76
2022/07/26 09:38:53;;;;;;;0.77;0.43;;;18.90;99.90;;;;;;4999087;28;20048;-75
2022/07/26 09:41:31;;;;;;;1.75;0.50;;;18.80;99.90;;;;;;5015457;28;20397;-76
2022/07/26 09:44:00;;;;;;;1.65;0.52;;;18.80;99.90;;;;;;4999072;28;20037;-76
2022/07/26 09:46:27;;;;;;;1.25;0.50;;;18.80;99.90;;;;;;4999015;28;20041;-75
2022/07/26 09:48:55;;;;;;;1.63;0.57;;;18.90;99.90;;;;;;5015364;28;20068;-75
2022/07/26 09:51:45;;;;;;;3.17;0.40;;;18.90;99.90;;;;;;5015343;28;20046;-75
2022/07/26 09:54:17;;;;;;;1.80;0.80;;;19.20;99.90;;;;;;5015636;28;20033;-76
2022/07/26 09:56:45;;;;;;;2.55;0.47;;;19.20;99.90;;;;;;5015223;28;20287;-76
2022/07/26 09:59:13;;;;;;;0.73;0.45;;;19.30;99.90;;;;;;4983040;28;20041;-76
2022/07/26 10:01:38;;;;;;;1.60;0.63;;;19.10;99.90;;;;;;5015203;28;20056;-76
2022/07/26 10:04:04;;;;;;;2.00;0.55;;;18.90;99.90;;;;;;4998700;28;20038;-75
2022/07/26 10:06:31;;;;;;;1.23;0.40;;;18.70;99.90;;;;;;4998871;28;20049;-76
2022/07/26 10:08:57;;;;;;;1.75;0.40;;;18.60;99.90;;;;;;5015440;28;20107;-76
2022/07/26 10:11:26;;;;;;;1.38;0.55;;;18.50;99.90;;;;;;4983073;28;20037;-76
2022/07/26 10:13:52;;;;;;;3.17;0.68;;;18.50;99.90;;;;;;4998814;28;20049;-76
2022/07/26 10:16:31;;;;;;;1.98;0.40;;;18.60;99.90;;;;;;4998750;28;20121;-76
2022/07/26 10:18:58;;;;;;;0.63;0.30;;;19.00;99.90;;;;;;5015129;28;20508;-76
2022/07/26 10:21:28;;;;;;;1.60;0.65;;;19.40;99.90;;;;;;4982476;28;20037;-75
2022/07/26 10:23:59;;;;;;;2.30;0.57;;;19.40;99.90;;;;;;4999048;28;20029;-75
2022/07/26 10:26:30;;;;;;;4.03;0.60;;;19.30;99.90;;;;;;5000497;28;20124;-75
2022/07/26 10:29:18;;;;;;;2.50;0.60;;;19.20;99.90;;;;;;5018963;28;20045;-75
2022/07/26 10:31:59;;;;;;;1.20;0.43;;;19.20;99.90;;;;;;5002817;28;20053;-76
2022/07/26 10:34:37;;;;;;;1.55;0.60;;;19.20;99.90;;;;;;5002752;28;20045;-75
2022/07/26 10:37:08;;;;;;;3.13;0.90;;;19.40;99.90;;;;;;5002496;28;20084;-75
2022/07/26 10:39:35;;;;;;;2.38;1.10;;;19.40;99.90;;;;;;5018817;28;20048;-76
2022/07/26 10:42:02;;;;;;;2.80;0.68;;;19.40;99.90;;;;;;5018661;28;20176;-75
2022/07/26 10:44:34;;;;;;;5.85;0.88;;;19.30;99.90;;;;;;5018643;28;20072;-75
2022/07/26 10:47:14;;;;;;;2.35;0.60;;;19.00;99.90;;;;;;5018897;28;20038;-75
2022/07/26 10:49:55;;;;;;;5.13;0.98;;;19.00;99.90;;;;;;5018901;28;20512;-75
2022/07/26 10:52:22;;;;;;;1.35;0.70;;;18.90;99.90;;;;;;5018507;28;20048;-76
2022/07/26 10:55:02;;;;;;;6.18;1.10;;;18.80;99.90;;;;;;5018662;28;20046;-76
2022/07/26 10:57:33;;;;;;;1.98;0.73;;;18.80;99.90;;;;;;5002099;28;20048;-76
2022/07/26 11:00:00;;;;;;;2.55;0.77;;;18.80;99.90;;;;;;5002145;28;20052;-76
2022/07/26 11:02:31;;;;;;;2.25;0.82;;;18.90;99.90;;;;;;5018405;28;20045;-76
2022/07/26 11:05:00;;;;;;;;;;;18.90;99.90;;;;;;5018729;28;20073;-75
2022/07/26 11:07:26;;;;;;;6.85;0.85;;;18.90;99.90;;;;;;5035055;28;19916;-75
2022/07/26 11:10:00;;;;;;;3.38;0.65;;;19.10;99.90;;;;;;5002181;28;20041;-76
2022/07/26 11:12:26;;;;;;;0.43;0.32;;;19.20;99.90;;;;;;5018218;28;20045;-76
2022/07/26 11:14:53;;;;;;;5.97;0.80;;;19.20;99.90;;;;;;5018153;28;20421;-76
2022/07/26 11:17:36;;;;;;;3.13;0.73;;;19.20;99.90;;;;;;5001785;28;20463;-75
2022/07/26 11:20:03;;;;;;;2.72;0.90;;;19.30;99.90;;;;;;5014706;28;20061;-76
2022/07/26 11:22:34;;;;;;;1.90;0.65;;;19.30;99.90;;;;;;4998357;28;20050;-76
2022/07/26 11:25:00;;;;;;;6.13;0.68;;;19.30;99.90;;;;;;5014691;28;20048;-75
2022/07/26 11:27:25;;;;;;;0.90;0.43;;;19.50;99.90;;;;;;4998296;28;20033;-75
2022/07/26 11:29:51;;;;;;;1.90;0.65;;;19.50;99.90;;;;;;4998254;28;20033;-75
2022/07/26 11:32:20;;;;;;;1.95;0.52;;;19.50;99.90;;;;;;5014506;28;20058;-75
2022/07/26 11:34:46;;;;;;;1.35;0.52;;;19.50;99.90;;;;;;4998193;28;20037;-75
2022/07/26 11:37:12;;;;;;;1.10;0.70;;;19.70;99.90;;;;;;4997819;28;20096;-75
2022/07/26 11:39:38;;;;;;;3.63;0.88;;;19.90;99.90;;;;;;5013980;28;20068;-75
2022/07/26 11:42:07;;;;;;;2.72;0.80;;;19.90;99.90;;;;;;4998272;28;20054;-75
2022/07/26 11:44:34;;;;;;;1.00;0.50;;;19.90;99.90;;;;;;5014227;28;20072;-75
2022/07/26 11:47:11;;;;;;;1.73;0.40;;;19.90;99.90;;;;;;5014296;28;20092;-75
2022/07/26 11:49:37;;;;;;;0.88;0.40;;;19.90;99.90;;;;;;5014499;28;20042;-75
2022/07/26 11:52:03;;;;;;;2.28;0.35;;;19.90;99.90;;;;;;5014423;28;20128;-75
2022/07/26 11:54:46;;;;;;;1.05;0.35;;;19.80;99.90;;;;;;4997790;28;20112;-75
2022/07/26 11:57:12;;;;;;;0.93;0.57;;;19.80;99.90;;;;;;4998163;28;20211;-75
2022/07/26 11:59:38;;;;;;;2.92;0.80;;;19.80;99.90;;;;;;5014302;28;20065;-75
2022/07/26 12:02:07;;;;;;;3.28;0.40;;;19.70;99.90;;;;;;5013935;28;20038;-75
2022/07/26 12:04:39;;;;;;;1.58;0.40;;;19.80;99.90;;;;;;5013865;28;20119;-75
2022/07/26 12:07:20;;;;;;;7.32;0.73;;;19.80;99.90;;;;;;5013882;28;20116;-76
2022/07/26 12:09:50;;;;;;;1.90;0.47;;;19.90;99.90;;;;;;5013875;28;20454;-76
2022/07/26 12:12:23;;;;;;;;;;;19.90;99.90;;;;;;5014266;28;20064;-75
2022/07/26 12:14:58;;;;;;;0.50;0.30;;;20.00;99.90;;;;;;5014079;28;20387;-75
2022/07/26 12:17:24;;;;;;;2.47;0.43;;;20.10;99.90;;;;;;5013929;28;20402;-76
2022/07/26 12:19:50;;;;;;;0.85;0.38;;;20.10;99.90;;;;;;4997241;28;20066;-76
2022/07/26 12:22:20;;;;;;;0.30;0.25;;;20.20;99.90;;;;;;4997281;28;20409;-76
2022/07/26 12:24:56;;;;;;;0.70;0.20;;;20.20;99.90;;;;;;4997217;28;20175;-76
2022/07/26 12:27:27;;;;;;;0.88;0.35;;;20.20;99.90;;;;;;4997206;28;20045;-76
2022/07/26 12:30:02;;;;;;;1.02;0.40;;;20.10;99.90;;;;;;4997455;28;20037;-76
2022/07/26 12:32:35;;;;;;;3.85;0.75;;;20.00;99.90;;;;;;5013523;28;20042;-76
2022/07/26 12:35:05;;;;;;;2.03;0.40;;;20.00;99.90;;;;;;5013408;28;20084;-75
2022/07/26 12:37:35;;;;;;;1.17;0.38;;;19.80;99.90;;;;;;4996958;28;20046;-75
2022/07/26 12:40:06;;;;;;;0.90;0.30;;;19.80;99.90;;;;;;5013524;28;20394;-76
2022/07/26 12:42:38;;;;;;;1.33;0.38;;;19.80;99.90;;;;;;5013489;28;20049;-75
2022/07/26 12:45:07;;;;;;;0.38;0.30;;;19.80;99.90;;;;;;5013328;28;20042;-75
2022/07/26 12:47:34;;;;;;;0.45;0.20;;;19.80;99.90;;;;;;5013147;28;20092;-76
2022/07/26 12:50:02;;;;;;;1.98;0.38;;;19.80;99.90;;;;;;5012095;28;20042;-76